createdAt,value
2018-05-09T16:26:24.661Z,3.73
2018-05-09T16:28:54.589Z,4.07
2018-05-09T16:31:23.601Z,3.40
2018-05-09T16:33:55.881Z,3.20
2018-05-09T16:36:24.000Z,3.07
2018-05-09T16:38:51.937Z,2.80
2018-05-09T16:41:20.015Z,2.40
2018-05-09T16:43:49.893Z,2.63
2018-05-09T16:46:23.209Z,2.37
2018-05-09T16:49:13.209Z,2.23
2018-05-09T16:51:43.953Z,2.37
2018-05-09T16:54:26.609Z,2.57
2018-05-09T16:56:55.629Z,2.73
2018-05-09T16:59:23.653Z,2.87
2018-05-09T17:01:51.672Z,2.63
2018-05-09T17:04:19.705Z,3.07
2018-05-09T17:06:47.737Z,2.50
2018-05-09T17:09:17.525Z,2.90
2018-05-09T17:11:47.525Z,2.70
2018-05-09T17:14:19.457Z,3.23
2018-05-09T17:16:48.465Z,2.87
2018-05-09T17:19:27.785Z,2.60
2018-05-09T17:22:13.364Z,3.20
2018-05-09T17:24:42.324Z,3.93
2018-05-09T17:27:12.213Z,3.13
2018-05-09T17:29:46.732Z,3.27
2018-05-09T17:32:15.632Z,2.90
2018-05-09T17:34:45.552Z,3.10
2018-05-09T17:37:14.368Z,3.17
2018-05-09T17:39:42.369Z,3.80
2018-05-09T17:42:12.281Z,4.00
2018-05-09T17:44:40.297Z,4.30
2018-05-09T17:47:10.120Z,3.63
2018-05-09T17:49:41.745Z,4.20
2018-05-09T17:52:11.764Z,3.70
2018-05-09T17:54:40.741Z,4.80
2018-05-09T17:57:08.761Z,3.30
2018-05-09T17:59:41.809Z,3.20
2018-05-09T18:02:09.817Z,4.43
2018-05-09T18:04:38.637Z,3.40
2018-05-09T18:07:08.564Z,3.97
2018-05-09T18:09:38.513Z,3.70
2018-05-09T18:12:08.537Z,3.57
2018-05-09T18:14:44.479Z,5.53
2018-05-09T18:17:12.510Z,4.10
2018-05-09T18:19:41.530Z,4.60
2018-05-09T18:22:11.610Z,5.00
2018-05-09T18:24:41.517Z,5.10
2018-05-09T18:27:09.541Z,4.70
2018-05-09T18:29:37.553Z,4.63
2018-05-09T18:32:05.581Z,4.50
2018-05-09T18:34:39.674Z,4.30
2018-05-09T18:37:09.713Z,4.50
2018-05-09T18:39:38.653Z,5.37
2018-05-09T18:42:07.673Z,5.03
2018-05-09T18:44:41.185Z,4.83
2018-05-09T18:47:09.212Z,4.10
2018-05-09T18:49:39.129Z,4.23
2018-05-09T18:52:10.985Z,4.70
2018-05-09T18:54:44.717Z,4.70
2018-05-09T18:57:12.741Z,4.70
2018-05-09T18:59:40.905Z,4.83
2018-05-09T19:02:10.581Z,5.43
2018-05-09T19:04:39.581Z,5.13
2018-05-09T19:07:08.557Z,5.27
2018-05-09T19:09:44.237Z,4.87
2018-05-09T19:12:16.481Z,5.57
2018-05-09T19:14:45.497Z,4.40
2018-05-09T19:17:15.285Z,4.80
2018-05-09T19:19:58.594Z,5.77
2018-05-09T19:22:27.657Z,4.43
2018-05-09T19:24:56.601Z,4.60
2018-05-09T19:27:24.641Z,4.93
2018-05-09T19:29:54.369Z,4.53
2018-05-09T19:32:22.397Z,4.53
2018-05-09T19:34:51.334Z,4.70
2018-05-09T19:37:23.736Z,4.93
2018-05-09T19:40:00.148Z,5.30
2018-05-09T19:42:32.188Z,4.30
2018-05-09T19:45:00.223Z,5.80
2018-05-09T19:47:29.376Z,4.90
2018-05-09T19:50:02.931Z,5.50
2018-05-09T19:52:33.863Z,4.60
2018-05-09T19:55:08.017Z,3.87
2018-05-09T19:57:36.348Z,4.20
2018-05-09T20:00:04.399Z,4.60
2018-05-09T20:02:39.095Z,4.27
2018-05-09T20:05:07.829Z,3.80
2018-05-09T20:07:38.139Z,4.60
2018-05-09T20:10:07.185Z,4.67
2018-05-09T20:12:36.129Z,6.00
2018-05-09T20:15:04.164Z,4.60
2018-05-09T20:17:45.016Z,4.13
2018-05-09T20:20:19.576Z,4.47
2018-05-09T20:22:47.720Z,3.80
2018-05-09T20:25:19.832Z,4.37
2018-05-09T20:27:51.511Z,4.60
2018-05-09T20:30:27.390Z,4.13
2018-05-09T20:32:56.348Z,4.23
2018-05-09T20:35:26.135Z,5.03
2018-05-09T20:37:54.787Z,3.90
2018-05-09T20:40:22.804Z,4.43
2018-05-09T20:42:51.791Z,4.30
2018-05-09T20:45:21.839Z,4.50
2018-05-09T20:47:51.448Z,4.10
2018-05-09T20:50:19.371Z,4.67
2018-05-09T20:52:49.225Z,4.33
2018-05-09T20:55:27.956Z,4.50
2018-05-09T20:57:56.039Z,4.47
2018-05-09T21:00:25.971Z,4.70
2018-05-09T21:02:56.512Z,4.47
2018-05-09T21:05:24.568Z,4.40
2018-05-09T21:07:56.342Z,4.97
2018-05-09T21:10:24.379Z,5.17
2018-05-09T21:12:56.052Z,3.90
2018-05-09T21:15:26.796Z,5.23
2018-05-09T21:17:55.843Z,5.00
2018-05-09T21:20:27.608Z,4.73
2018-05-09T21:23:00.312Z,4.80
2018-05-09T21:25:35.667Z,5.17
2018-05-09T21:28:04.459Z,5.57
2018-05-09T21:30:32.936Z,5.00
2018-05-09T21:33:08.987Z,4.93
2018-05-09T21:35:37.043Z,5.40
2018-05-09T21:38:11.051Z,5.60
2018-05-09T21:40:39.123Z,4.83
2018-05-09T21:43:07.147Z,5.43
2018-05-09T21:45:35.187Z,5.47
2018-05-09T21:48:07.495Z,5.00
2018-05-09T21:50:36.507Z,5.23
2018-05-09T21:53:06.459Z,6.70
2018-05-09T21:55:37.443Z,5.43
2018-05-09T21:58:19.587Z,4.83
2018-05-09T22:00:49.606Z,5.37
2018-05-09T22:03:32.471Z,5.00
2018-05-09T22:06:11.687Z,6.07
2018-05-09T22:08:43.797Z,4.80
2018-05-09T22:11:12.611Z,4.83
2018-05-09T22:13:44.521Z,4.50
2018-05-09T22:16:17.258Z,5.63
2018-05-09T22:18:45.326Z,5.70
2018-05-09T22:21:17.650Z,6.03
2018-05-09T22:23:47.478Z,6.20
2018-05-09T22:26:16.439Z,5.50
2018-05-09T22:28:44.873Z,7.17
2018-05-09T22:31:15.278Z,6.60
2018-05-09T22:33:44.254Z,6.23
2018-05-09T22:36:16.799Z,6.50
2018-05-09T22:38:46.172Z,5.60
2018-05-09T22:41:21.654Z,5.60
2018-05-09T22:43:50.438Z,5.53
2018-05-09T22:46:21.290Z,6.30
2018-05-09T22:48:55.363Z,6.20
2018-05-09T22:51:23.523Z,6.80
2018-05-09T22:54:10.690Z,6.50
2018-05-09T22:56:40.562Z,6.20
2018-05-09T22:59:08.566Z,6.80
2018-05-09T23:01:38.422Z,6.53
2018-05-09T23:04:08.426Z,6.40
2018-05-09T23:06:36.473Z,6.60
2018-05-09T23:09:07.203Z,7.07
2018-05-09T23:11:38.066Z,7.33
2018-05-09T23:14:08.043Z,6.33
2018-05-09T23:16:37.018Z,6.80
2018-05-09T23:19:13.437Z,7.17
2018-05-09T23:21:41.438Z,6.77
2018-05-09T23:24:09.474Z,6.70
2018-05-09T23:26:39.882Z,6.70
2018-05-09T23:29:15.326Z,7.33
2018-05-09T23:31:44.377Z,6.77
2018-05-09T23:34:12.434Z,6.40
2018-05-09T23:36:43.946Z,7.57
2018-05-09T23:39:17.361Z,7.40
2018-05-09T23:41:49.010Z,6.17
2018-05-09T23:44:22.213Z,7.37
2018-05-09T23:46:50.457Z,7.40
2018-05-09T23:52:00.138Z,8.63
2018-05-09T23:54:28.614Z,7.90
2018-05-09T23:57:00.782Z,7.63
2018-05-09T23:59:28.903Z,7.30
